Time;durP1;ratioP1;P1;durP2;ratioP2;P2;SDS_P1;SDS_P2;PMS_P1;PMS_P2;Temp;Humidity;BMP_temperature;BMP_pressure;BME280_temperature;BME280_humidity;BME280_pressure;Samples;Min_cycle;Max_cycle;Signal;HPM_P1;HPM_P2
2021/09/19 00:01:30;;;;;;;7.25;5.43;;;18.60;80.90;;;;;;5084880;28;20028;-63
2021/09/19 00:03:56;;;;;;;7.00;5.40;;;18.50;80.80;;;;;;5067773;28;20043;-62
2021/09/19 00:06:21;;;;;;;7.30;5.32;;;18.50;80.80;;;;;;5083434;28;20190;-61
2021/09/19 00:08:47;;;;;;;7.32;5.80;;;18.50;80.80;;;;;;5085448;28;20073;-63
2021/09/19 00:11:12;;;;;;;9.43;5.53;;;18.50;80.90;;;;;;5086408;28;20328;-63
2021/09/19 00:13:38;;;;;;;6.00;4.82;;;18.40;81.00;;;;;;5066346;28;20440;-63
2021/09/19 00:16:04;;;;;;;6.85;5.40;;;18.40;81.00;;;;;;5066714;28;20043;-62
2021/09/19 00:18:30;;;;;;;6.50;5.50;;;18.40;81.10;;;;;;5065902;28;20019;-63
2021/09/19 00:20:55;;;;;;;8.85;5.30;;;18.40;81.10;;;;;;5082417;28;20052;-63
2021/09/19 00:23:21;;;;;;;6.45;5.13;;;18.40;81.30;;;;;;5081801;28;20102;-61
2021/09/19 00:25:46;;;;;;;6.25;4.68;;;18.30;81.30;;;;;;5064239;28;20035;-63
2021/09/19 00:28:12;;;;;;;5.68;4.82;;;18.30;81.30;;;;;;5065456;28;20028;-63
2021/09/19 00:30:37;;;;;;;5.57;4.90;;;18.30;81.50;;;;;;5085581;28;20113;-63
2021/09/19 00:33:03;;;;;;;6.32;5.13;;;18.30;81.60;;;;;;5077081;28;20056;-63
2021/09/19 00:35:28;;;;;;;6.97;5.32;;;18.30;81.60;;;;;;5083838;28;20032;-63
2021/09/19 00:37:54;;;;;;;6.90;4.75;;;18.30;81.70;;;;;;5066841;28;20413;-62
2021/09/19 00:40:19;;;;;;;5.78;5.07;;;18.20;81.70;;;;;;5064989;28;20028;-62
2021/09/19 00:42:45;;;;;;;6.05;4.72;;;18.20;81.60;;;;;;5064250;28;20020;-62
2021/09/19 00:45:13;;;;;;;7.50;4.82;;;18.20;81.70;;;;;;5084078;28;20032;-62
2021/09/19 00:47:39;;;;;;;6.07;4.75;;;18.20;81.70;;;;;;5064532;28;20173;-63
2021/09/19 00:50:05;;;;;;;6.47;5.18;;;18.20;81.80;;;;;;5082964;28;20435;-63
2021/09/19 00:52:30;;;;;;;6.15;4.75;;;18.10;81.80;;;;;;5083281;28;20036;-63
2021/09/19 00:54:58;;;;;;;8.02;5.38;;;18.10;81.90;;;;;;5082845;28;20078;-62
2021/09/19 00:57:24;;;;;;;6.05;5.45;;;18.10;82.00;;;;;;5048114;28;20394;-62
2021/09/19 00:59:50;;;;;;;5.80;4.60;;;18.10;82.10;;;;;;5065881;28;20038;-62
2021/09/19 01:02:15;;;;;;;5.55;4.65;;;18.10;82.10;;;;;;5064758;28;20032;-62
2021/09/19 01:04:41;;;;;;;6.22;4.43;;;18.10;82.10;;;;;;5066159;28;20036;-62
2021/09/19 01:07:07;;;;;;;5.25;4.75;;;18.00;82.00;;;;;;5064725;28;20020;-63
2021/09/19 01:09:35;;;;;;;5.78;4.40;;;18.00;82.10;;;;;;5084643;28;20095;-63
2021/09/19 01:12:00;;;;;;;5.35;4.20;;;18.00;82.10;;;;;;5062923;28;20131;-63
2021/09/19 01:14:26;;;;;;;5.07;4.55;;;18.00;82.40;;;;;;5065860;28;20397;-63
2021/09/19 01:16:51;;;;;;;6.95;4.85;;;18.00;82.20;;;;;;5047384;28;20032;-62
2021/09/19 01:19:20;;;;;;;5.60;4.32;;;18.00;82.30;;;;;;5065340;28;20448;-63
2021/09/19 01:21:46;;;;;;;4.72;4.22;;;18.00;82.30;;;;;;5063309;28;20024;-63
2021/09/19 01:24:11;;;;;;;5.07;3.92;;;17.90;82.30;;;;;;5069962;28;20127;-63
2021/09/19 01:26:37;;;;;;;4.82;4.07;;;17.90;82.30;;;;;;5033328;28;20119;-63
2021/09/19 01:29:02;;;;;;;4.57;3.85;;;17.90;82.30;;;;;;5056247;28;20025;-63
2021/09/19 01:31:28;;;;;;;4.63;4.10;;;17.90;82.30;;;;;;5058775;28;20136;-63
2021/09/19 01:33:54;;;;;;;4.50;4.10;;;17.90;82.40;;;;;;5056263;28;20199;-62
2021/09/19 01:36:19;;;;;;;5.50;3.78;;;17.80;82.30;;;;;;5055546;28;20108;-63
2021/09/19 01:38:45;;;;;;;5.32;4.05;;;17.80;82.40;;;;;;5058253;28;20560;-63
2021/09/19 01:41:16;;;;;;;5.38;3.92;;;17.80;82.30;;;;;;5061359;28;20452;-62
2021/09/19 01:43:41;;;;;;;4.20;3.80;;;17.80;82.30;;;;;;5055008;28;20551;-62
2021/09/19 01:46:07;;;;;;;5.22;3.80;;;17.80;82.30;;;;;;5054343;28;20032;-62
2021/09/19 01:48:33;;;;;;;6.57;4.68;;;17.70;82.30;;;;;;5061863;28;20029;-63
2021/09/19 01:51:00;;;;;;;5.07;4.22;;;17.70;82.30;;;;;;5059440;28;20032;-62
2021/09/19 01:53:25;;;;;;;5.57;4.00;;;17.70;82.40;;;;;;5055820;28;20035;-62
2021/09/19 01:55:51;;;;;;;4.70;3.63;;;17.70;82.40;;;;;;5041050;28;20103;-63
2021/09/19 01:58:16;;;;;;;5.68;3.78;;;17.70;82.40;;;;;;5061609;28;20116;-62
2021/09/19 02:00:42;;;;;;;3.65;3.35;;;17.60;82.40;;;;;;5059304;28;20027;-62
2021/09/19 02:03:07;;;;;;;4.20;3.60;;;17.70;82.40;;;;;;5059285;28;20028;-62
2021/09/19 02:05:33;;;;;;;5.18;3.80;;;17.60;82.40;;;;;;5034750;28;20603;-62
2021/09/19 02:07:58;;;;;;;4.22;3.67;;;17.60;82.40;;;;;;5043766;28;20036;-62
2021/09/19 02:10:24;;;;;;;4.10;3.63;;;17.60;82.40;;;;;;5060386;28;20028;-63
2021/09/19 02:12:49;;;;;;;4.60;3.33;;;17.60;82.60;;;;;;5039290;28;20056;-63
2021/09/19 02:15:15;;;;;;;4.30;3.50;;;17.60;82.60;;;;;;5058867;28;20117;-63
2021/09/19 02:17:41;;;;;;;4.43;3.97;;;17.60;82.60;;;;;;5039918;28;20036;-63
2021/09/19 02:20:07;;;;;;;3.55;3.25;;;17.50;82.60;;;;;;5044070;28;20411;-63
2021/09/19 02:22:33;;;;;;;3.85;3.35;;;17.50;82.60;;;;;;5038838;28;20094;-62
2021/09/19 02:24:58;;;;;;;3.80;3.28;;;17.50;82.60;;;;;;5060222;28;20225;-62
2021/09/19 02:27:24;;;;;;;3.80;3.40;;;17.50;82.60;;;;;;5061265;28;20028;-64
2021/09/19 02:29:49;;;;;;;4.28;3.15;;;17.50;82.70;;;;;;5063565;28;20099;-62
2021/09/19 02:32:16;;;;;;;4.75;3.35;;;17.50;82.70;;;;;;5081383;28;20120;-62
2021/09/19 02:34:41;;;;;;;4.03;3.42;;;17.40;82.70;;;;;;5063488;28;20043;-62
2021/09/19 02:37:07;;;;;;;3.90;3.15;;;17.40;82.80;;;;;;5063615;28;20105;-60
2021/09/19 02:39:32;;;;;;;4.75;3.42;;;17.40;82.70;;;;;;5083122;28;20125;-61
2021/09/19 02:41:58;;;;;;;5.93;3.10;;;17.40;82.80;;;;;;5078039;28;20487;-61
2021/09/19 02:44:23;;;;;;;5.45;3.25;;;17.40;82.90;;;;;;5080347;28;20393;-60
2021/09/19 02:46:49;;;;;;;4.88;2.90;;;17.40;82.80;;;;;;5073476;28;20028;-62
2021/09/19 02:49:14;;;;;;;4.22;3.83;;;17.30;82.80;;;;;;5087325;28;20038;-62
2021/09/19 02:51:40;;;;;;;3.92;3.40;;;17.30;82.70;;;;;;5087221;28;20026;-62
2021/09/19 02:54:05;;;;;;;3.53;3.10;;;17.40;82.60;;;;;;5053916;28;20471;-62
2021/09/19 02:56:31;;;;;;;4.13;3.22;;;17.40;82.40;;;;;;5051961;28;20032;-62
2021/09/19 02:58:56;;;;;;;3.80;3.30;;;17.40;82.40;;;;;;5069792;28;20020;-62
2021/09/19 03:01:22;;;;;;;3.95;3.42;;;17.30;82.40;;;;;;5088099;28;20086;-63
2021/09/19 03:03:47;;;;;;;3.25;2.95;;;17.30;82.40;;;;;;5069102;28;20078;-63
2021/09/19 03:06:13;;;;;;;3.65;3.10;;;17.30;82.50;;;;;;5068690;28;20052;-62
2021/09/19 03:08:38;;;;;;;3.78;3.45;;;17.30;82.40;;;;;;5086975;28;20032;-62
2021/09/19 03:11:04;;;;;;;3.38;3.08;;;17.30;82.40;;;;;;5088427;28;20475;-63
2021/09/19 03:13:29;;;;;;;2.85;2.65;;;17.20;82.40;;;;;;5069710;28;20050;-62
2021/09/19 03:15:55;;;;;;;3.75;3.00;;;17.20;82.60;;;;;;5070703;28;20043;-63
2021/09/19 03:18:20;;;;;;;4.40;2.70;;;17.20;82.60;;;;;;5087756;28;21325;-62
2021/09/19 03:20:46;;;;;;;3.55;3.13;;;17.20;82.60;;;;;;5085391;28;20036;-63
2021/09/19 03:23:11;;;;;;;3.20;2.90;;;17.20;82.60;;;;;;5084833;28;20514;-63
2021/09/19 03:25:37;;;;;;;3.55;3.03;;;17.10;82.50;;;;;;5088488;28;20447;-62
2021/09/19 03:28:03;;;;;;;3.75;3.10;;;17.10;82.60;;;;;;5069555;28;20491;-62
2021/09/19 03:30:28;;;;;;;4.05;3.20;;;17.10;82.50;;;;;;5070015;28;20043;-62
2021/09/19 03:32:54;;;;;;;3.20;2.90;;;17.10;82.60;;;;;;5088744;28;20040;-62
2021/09/19 03:35:20;;;;;;;4.80;3.40;;;17.10;82.70;;;;;;5087906;28;20048;-62
2021/09/19 03:37:46;;;;;;;4.43;3.38;;;17.10;82.60;;;;;;5088636;28;20042;-63
2021/09/19 03:40:12;;;;;;;3.53;3.15;;;17.00;82.60;;;;;;5088936;28;20028;-62
2021/09/19 03:42:37;;;;;;;4.07;3.20;;;17.10;82.80;;;;;;5069541;28;20382;-63
2021/09/19 03:45:04;;;;;;;3.17;2.88;;;17.00;82.70;;;;;;5070224;28;20062;-62
2021/09/19 03:47:29;;;;;;;4.20;3.22;;;17.00;82.80;;;;;;5069590;28;20325;-62
2021/09/19 03:49:55;;;;;;;3.70;3.40;;;17.00;82.80;;;;;;5087839;28;20082;-63
2021/09/19 03:52:20;;;;;;;3.20;2.90;;;17.00;82.80;;;;;;5067705;28;20090;-62
2021/09/19 03:54:46;;;;;;;4.20;3.50;;;17.00;83.50;;;;;;5070372;28;20055;-62
2021/09/19 03:57:11;;;;;;;4.03;3.03;;;17.00;82.70;;;;;;5085055;28;20075;-63
2021/09/19 03:59:37;;;;;;;3.15;2.85;;;17.00;82.70;;;;;;5049379;28;20375;-63
2021/09/19 04:02:02;;;;;;;3.40;3.10;;;17.00;82.80;;;;;;5065180;28;20044;-62
2021/09/19 04:04:28;;;;;;;3.53;2.85;;;16.90;82.70;;;;;;5085131;28;20020;-62
2021/09/19 04:06:53;;;;;;;3.72;3.10;;;16.90;82.80;;;;;;5065678;28;20024;-62
2021/09/19 04:09:19;;;;;;;3.17;2.88;;;16.90;82.90;;;;;;5085731;28;20479;-62
2021/09/19 04:11:44;;;;;;;3.38;3.08;;;16.90;82.80;;;;;;5083596;28;20016;-63
2021/09/19 04:14:10;;;;;;;5.18;2.75;;;16.90;82.90;;;;;;5082974;28;20466;-62
2021/09/19 04:16:35;;;;;;;3.40;3.10;;;16.90;82.90;;;;;;5084264;28;20033;-62
2021/09/19 04:19:01;;;;;;;3.20;2.90;;;16.90;83.70;;;;;;5083511;28;20234;-62
2021/09/19 04:21:27;;;;;;;3.22;3.03;;;16.80;82.90;;;;;;5083680;28;20024;-63
2021/09/19 04:23:53;;;;;;;3.95;3.17;;;16.80;83.10;;;;;;5063810;28;20498;-62
2021/09/19 04:26:18;;;;;;;5.30;3.17;;;16.80;83.00;;;;;;5062261;28;20043;-62
2021/09/19 04:28:44;;;;;;;4.03;3.60;;;16.80;83.10;;;;;;5066970;28;20043;-63
2021/09/19 04:31:09;;;;;;;3.40;3.10;;;16.80;83.10;;;;;;5084032;28;20031;-63
2021/09/19 04:33:35;;;;;;;4.00;3.47;;;16.60;83.00;;;;;;5082017;28;20110;-63
2021/09/19 04:36:00;;;;;;;3.72;3.42;;;16.80;83.20;;;;;;5085291;28;20104;-62
2021/09/19 04:38:26;;;;;;;3.60;3.30;;;16.70;83.10;;;;;;5082700;28;20115;-62
2021/09/19 04:40:51;;;;;;;4.22;3.40;;;16.70;83.10;;;;;;5081776;28;20036;-62
2021/09/19 04:43:17;;;;;;;3.65;3.35;;;16.70;83.10;;;;;;5084539;28;20498;-62
2021/09/19 04:45:42;;;;;;;4.15;3.35;;;16.70;83.20;;;;;;5083842;28;20032;-62
2021/09/19 04:48:08;;;;;;;3.85;3.50;;;16.70;83.20;;;;;;5063188;28;20028;-62
2021/09/19 04:50:33;;;;;;;3.97;3.58;;;16.70;83.10;;;;;;5064613;28;20040;-62
2021/09/19 04:52:59;;;;;;;4.32;3.92;;;16.70;83.20;;;;;;5061119;28;20051;-63
2021/09/19 04:55:24;;;;;;;4.30;3.90;;;16.70;83.20;;;;;;5049707;28;20077;-62
2021/09/19 04:57:50;;;;;;;4.10;3.58;;;16.70;83.30;;;;;;5082817;28;20020;-62
2021/09/19 05:00:15;;;;;;;4.13;3.78;;;16.70;83.30;;;;;;5084336;28;20028;-62
2021/09/19 05:02:41;;;;;;;4.45;3.97;;;16.70;83.30;;;;;;5065166;28;20126;-62
2021/09/19 05:05:07;;;;;;;4.45;4.03;;;16.70;83.30;;;;;;5083873;28;20487;-62
2021/09/19 05:07:33;;;;;;;5.03;3.67;;;16.60;83.30;;;;;;5082108;28;20071;-62
2021/09/19 05:09:58;;;;;;;4.38;3.97;;;16.70;83.50;;;;;;5081626;28;20067;-62
2021/09/19 05:12:24;;;;;;;4.85;3.80;;;16.60;83.40;;;;;;5064855;28;20382;-62
2021/09/19 05:14:49;;;;;;;4.38;3.97;;;16.60;83.50;;;;;;5082528;28;20131;-63
2021/09/19 05:17:16;;;;;;;4.60;3.83;;;16.60;83.60;;;;;;5082344;28;20110;-62
2021/09/19 05:19:41;;;;;;;4.30;3.90;;;16.60;83.60;;;;;;5082366;28;20800;-63
2021/09/19 05:22:07;;;;;;;4.53;3.75;;;16.60;83.60;;;;;;5064047;28;20047;-62
2021/09/19 05:24:32;;;;;;;4.68;4.28;;;16.50;83.60;;;;;;5081053;28;20512;-62
2021/09/19 05:26:58;;;;;;;5.25;4.60;;;16.60;83.60;;;;;;5082216;28;20036;-62
2021/09/19 05:29:23;;;;;;;5.03;4.30;;;16.50;83.60;;;;;;5064170;28;20028;-63
2021/09/19 05:31:49;;;;;;;4.85;4.18;;;16.60;83.80;;;;;;5048234;28;20108;-63
2021/09/19 05:34:14;;;;;;;5.32;4.50;;;16.50;83.70;;;;;;5048086;28;20033;-63
2021/09/19 05:36:40;;;;;;;6.07;4.30;;;16.50;83.90;;;;;;5082664;28;20118;-63
2021/09/19 05:39:05;;;;;;;10.45;4.53;;;16.50;83.90;;;;;;5083767;28;20384;-63
2021/09/19 05:41:32;;;;;;;8.25;4.70;;;16.60;84.00;;;;;;5063431;28;20848;-63
2021/09/19 05:43:58;;;;;;;6.70;4.68;;;16.60;84.00;;;;;;5082081;28;20036;-63
2021/09/19 05:46:23;;;;;;;5.97;5.18;;;16.60;83.90;;;;;;5063464;28;20064;-63
2021/09/19 05:48:49;;;;;;;6.53;5.03;;;16.60;84.00;;;;;;5079218;28;20064;-63
2021/09/19 05:51:15;;;;;;;9.93;5.25;;;16.60;84.00;;;;;;5065330;28;20062;-64
2021/09/19 05:53:40;;;;;;;6.35;4.40;;;16.60;84.00;;;;;;5079679;28;20020;-63
2021/09/19 05:56:06;;;;;;;7.65;5.15;;;16.60;84.10;;;;;;5082148;28;20585;-63
2021/09/19 05:58:31;;;;;;;6.03;4.93;;;16.60;84.10;;;;;;5081356;28;20044;-63
2021/09/19 06:00:57;;;;;;;6.10;5.00;;;16.60;84.20;;;;;;5081910;28;20027;-62
2021/09/19 06:03:23;;;;;;;7.20;5.10;;;16.70;84.40;;;;;;5063840;28;20387;-62
2021/09/19 06:05:48;;;;;;;6.80;5.20;;;16.40;84.40;;;;;;5064392;28;20127;-62
2021/09/19 06:08:13;;;;;;;8.43;5.30;;;16.60;84.80;;;;;;5082905;28;20035;-63
2021/09/19 06:10:39;;;;;;;8.20;5.78;;;16.70;85.00;;;;;;5081378;28;20377;-62
2021/09/19 06:13:04;;;;;;;6.10;4.82;;;16.70;85.20;;;;;;5081967;28;20050;-63
2021/09/19 06:15:30;;;;;;;10.15;4.93;;;16.70;85.00;;;;;;5082753;28;20066;-62
2021/09/19 06:17:56;;;;;;;9.02;5.00;;;16.70;85.00;;;;;;5062737;28;20107;-62
2021/09/19 06:20:21;;;;;;;6.70;5.20;;;16.60;85.00;;;;;;5081310;28;20040;-62
2021/09/19 06:22:47;;;;;;;8.13;5.45;;;16.70;85.30;;;;;;5076307;28;20032;-62
2021/09/19 06:25:12;;;;;;;11.10;5.63;;;16.60;85.20;;;;;;5079534;28;20044;-63
2021/09/19 06:27:38;;;;;;;6.05;4.60;;;16.60;85.30;;;;;;5032327;28;20032;-62
2021/09/19 06:30:05;;;;;;;6.65;5.05;;;16.70;85.40;;;;;;5082501;28;20028;-63
2021/09/19 06:32:30;;;;;;;8.15;5.10;;;16.70;85.40;;;;;;5062319;28;20048;-62
2021/09/19 06:34:56;;;;;;;8.48;4.97;;;16.70;85.50;;;;;;5082517;28;20450;-63
2021/09/19 06:37:22;;;;;;;5.93;4.65;;;16.70;85.50;;;;;;5063001;28;20055;-62
2021/09/19 06:39:47;;;;;;;5.40;4.90;;;16.70;85.60;;;;;;5063340;28;20043;-63
2021/09/19 06:42:13;;;;;;;253.43;21.05;;;16.70;85.40;;;;;;5081700;28;20039;-62
2021/09/19 06:44:38;;;;;;;101.90;11.65;;;16.70;85.60;;;;;;5082306;28;21201;-63
2021/09/19 06:47:04;;;;;;;22.00;6.10;;;16.70;85.50;;;;;;5078086;28;20107;-63
2021/09/19 06:49:29;;;;;;;17.20;5.63;;;16.70;85.50;;;;;;5063026;28;20456;-61
2021/09/19 06:51:54;;;;;;;39.38;7.50;;;16.70;85.60;;;;;;5081331;28;20040;-63
2021/09/19 06:54:20;;;;;;;37.22;7.32;;;16.70;85.60;;;;;;5062370;28;20070;-63
2021/09/19 06:56:48;;;;;;;33.67;6.72;;;16.70;85.60;;;;;;5080843;28;20020;-62
2021/09/19 06:59:13;;;;;;;18.80;5.82;;;16.70;85.40;;;;;;5080189;28;20150;-62
2021/09/19 07:01:39;;;;;;;15.65;5.43;;;16.70;85.30;;;;;;5061414;28;20575;-63
2021/09/19 07:04:04;;;;;;;14.07;5.28;;;16.70;85.30;;;;;;5081605;28;20115;-62
2021/09/19 07:06:30;;;;;;;18.17;5.45;;;16.70;85.30;;;;;;5063049;28;20271;-62
2021/09/19 07:08:56;;;;;;;16.50;6.03;;;16.80;85.30;;;;;;5081952;28;20173;-62
2021/09/19 07:11:22;;;;;;;16.30;5.00;;;16.80;85.40;;;;;;5081958;28;20067;-62
2021/09/19 07:13:47;;;;;;;11.07;5.40;;;16.80;85.50;;;;;;5064012;28;20047;-62
2021/09/19 07:16:13;;;;;;;16.25;5.68;;;16.80;85.40;;;;;;5081162;28;20151;-63
2021/09/19 07:18:38;;;;;;;11.15;5.03;;;16.80;85.30;;;;;;5064006;28;20379;-62
2021/09/19 07:21:04;;;;;;;10.38;4.68;;;16.70;85.20;;;;;;5063007;28;20137;-63
2021/09/19 07:23:29;;;;;;;13.45;5.25;;;16.80;85.10;;;;;;5079302;28;20043;-63
2021/09/19 07:25:55;;;;;;;11.20;5.10;;;16.70;85.10;;;;;;5062113;28;20255;-62
2021/09/19 07:28:20;;;;;;;12.63;4.55;;;16.70;85.10;;;;;;5078833;28;20032;-62
2021/09/19 07:30:46;;;;;;;7.80;4.28;;;16.70;85.00;;;;;;5058916;28;20040;-66
2021/09/19 07:33:12;;;;;;;14.90;4.38;;;16.80;85.00;;;;;;5062602;28;21455;-62
2021/09/19 07:35:37;;;;;;;6.43;4.10;;;16.80;85.00;;;;;;5083805;28;20078;-62
2021/09/19 07:38:03;;;;;;;6.47;4.00;;;16.80;84.90;;;;;;5066731;28;20471;-63
2021/09/19 07:40:29;;;;;;;6.78;3.90;;;16.80;85.00;;;;;;5050244;28;20089;-63
2021/09/19 07:42:55;;;;;;;9.23;3.20;;;16.80;85.00;;;;;;5048858;28;20325;-62
2021/09/19 07:45:20;;;;;;;3.60;3.20;;;16.80;85.30;;;;;;5082290;28;20063;-63
2021/09/19 07:47:46;;;;;;;3.50;2.72;;;16.80;85.50;;;;;;5068062;28;20020;-62
2021/09/19 07:50:12;;;;;;;7.65;2.92;;;16.80;85.70;;;;;;5083424;28;20456;-62
2021/09/19 07:52:38;;;;;;;3.20;2.70;;;16.80;85.80;;;;;;5085060;28;20056;-64
2021/09/19 07:55:04;;;;;;;3.63;2.47;;;16.80;85.90;;;;;;5064929;28;20360;-62
2021/09/19 07:57:30;;;;;;;2.53;2.33;;;16.80;86.30;;;;;;5081811;28;20451;-62
2021/09/19 07:59:55;;;;;;;6.47;2.30;;;16.80;86.40;;;;;;5060538;28;20098;-62
2021/09/19 08:02:21;;;;;;;4.97;2.00;;;16.80;86.60;;;;;;5065095;28;20054;-62
2021/09/19 08:04:47;;;;;;;3.15;2.00;;;16.80;86.80;;;;;;5065730;28;20017;-63
2021/09/19 08:07:12;;;;;;;2.05;1.85;;;16.80;87.10;;;;;;5084038;28;20028;-63
2021/09/19 08:09:38;;;;;;;2.60;1.90;;;16.80;87.40;;;;;;5063819;28;20047;-62
2021/09/19 08:12:04;;;;;;;2.65;2.03;;;16.80;87.60;;;;;;5084582;28;20065;-63
2021/09/19 08:14:29;;;;;;;5.78;1.52;;;16.80;87.80;;;;;;5080291;28;20051;-63
2021/09/19 08:16:55;;;;;;;8.23;1.67;;;16.80;88.10;;;;;;5065042;28;20032;-63
2021/09/19 08:19:21;;;;;;;7.15;1.60;;;16.80;88.60;;;;;;5082474;28;20537;-63
2021/09/19 08:21:47;;;;;;;14.27;1.70;;;16.80;89.00;;;;;;5062140;28;20028;-63
2021/09/19 08:24:12;;;;;;;15.35;1.88;;;16.80;89.50;;;;;;5061216;28;20063;-64
2021/09/19 08:26:38;;;;;;;15.95;2.35;;;16.90;89.60;;;;;;5064978;28;20031;-69
2021/09/19 08:29:05;;;;;;;22.27;3.03;;;16.90;89.90;;;;;;5047786;28;20028;-65
2021/09/19 08:31:30;;;;;;;14.20;2.60;;;16.90;90.00;;;;;;5083300;28;20035;-64
2021/09/19 08:33:56;;;;;;;21.05;2.35;;;16.90;90.10;;;;;;5079692;28;20310;-65
2021/09/19 08:36:21;;;;;;;15.05;2.97;;;16.90;90.20;;;;;;5082632;28;20107;-62
2021/09/19 08:38:47;;;;;;;19.90;2.58;;;17.00;90.40;;;;;;5047450;28;20119;-62
2021/09/19 08:41:17;;;;;;;22.92;3.42;;;17.00;90.50;;;;;;5064357;28;20051;-63
2021/09/19 08:43:44;;;;;;;33.22;3.10;;;17.00;90.90;;;;;;5059999;28;20041;-63
2021/09/19 08:46:10;;;;;;;20.33;3.70;;;17.00;90.60;;;;;;5044981;28;20152;-62
2021/09/19 08:48:37;;;;;;;41.80;5.07;;;17.00;90.60;;;;;;5062617;28;20728;-62
2021/09/19 08:51:02;;;;;;;45.03;4.55;;;17.10;90.70;;;;;;5042905;28;20025;-63
2021/09/19 08:53:28;;;;;;;53.28;4.35;;;17.10;90.60;;;;;;5064404;28;20028;-62
2021/09/19 08:55:54;;;;;;;42.58;4.65;;;17.10;90.70;;;;;;5060178;28;20889;-62
2021/09/19 08:58:20;;;;;;;47.55;5.25;;;17.10;90.70;;;;;;5062328;28;20025;-62
2021/09/19 09:00:48;;;;;;;72.30;7.68;;;17.20;90.60;;;;;;5081995;28;20130;-63
2021/09/19 09:03:16;;;;;;;70.82;8.05;;;17.20;90.80;;;;;;5082171;28;20146;-62
2021/09/19 09:05:41;;;;;;;40.78;6.22;;;17.20;90.90;;;;;;5062161;28;20118;-63
2021/09/19 09:08:08;;;;;;;44.15;6.88;;;17.20;90.80;;;;;;5078850;28;20068;-62
2021/09/19 09:10:39;;;;;;;57.30;6.78;;;17.30;90.90;;;;;;5079065;28;20025;-63
2021/09/19 09:13:09;;;;;;;61.53;7.95;;;17.30;90.90;;;;;;5081007;28;20024;-62
2021/09/19 09:15:42;;;;;;;66.78;7.25;;;17.30;90.80;;;;;;5061972;28;20047;-64
2021/09/19 09:18:09;;;;;;;94.03;9.77;;;17.40;91.10;;;;;;5081257;28;20047;-62
2021/09/19 09:20:48;;;;;;;110.47;9.77;;;17.40;91.20;;;;;;5062701;28;20031;-62
2021/09/19 09:23:23;;;;;;;90.00;10.77;;;17.40;91.30;;;;;;5079958;28;20035;-62
2021/09/19 09:26:08;;;;;;;80.53;9.23;;;17.50;91.30;;;;;;5059664;28;20448;-62
2021/09/19 09:28:41;;;;;;;101.18;9.30;;;17.50;91.00;;;;;;5080053;28;20059;-62
2021/09/19 09:31:06;;;;;;;70.82;9.88;;;17.50;90.80;;;;;;5076696;28;20032;-62
2021/09/19 09:33:32;;;;;;;71.65;7.93;;;17.50;90.90;;;;;;5080466;28;20434;-62
2021/09/19 09:35:57;;;;;;;87.68;9.20;;;17.50;90.50;;;;;;5080502;28;20502;-62
2021/09/19 09:38:24;;;;;;;88.53;9.52;;;17.50;90.40;;;;;;5061689;28;20044;-62
2021/09/19 09:40:49;;;;;;;60.97;7.32;;;17.60;90.50;;;;;;5061715;28;20035;-61
2021/09/19 09:43:16;;;;;;;107.93;9.82;;;17.60;90.40;;;;;;5079885;28;20135;-62
2021/09/19 09:45:43;;;;;;;136.02;12.18;;;17.60;90.30;;;;;;5062210;28;20487;-62
2021/09/19 09:48:30;;;;;;;109.38;10.85;;;17.60;90.50;;;;;;5063185;28;20945;-62
2021/09/19 09:50:57;;;;;;;81.03;10.23;;;17.60;90.30;;;;;;5080258;28;20020;-62
2021/09/19 09:53:24;;;;;;;97.22;10.73;;;17.60;90.40;;;;;;5062742;28;20050;-62
2021/09/19 09:55:51;;;;;;;118.93;13.48;;;17.60;90.30;;;;;;5078612;28;20167;-62
2021/09/19 09:58:20;;;;;;;154.27;15.70;;;17.60;90.70;;;;;;5081720;28;20040;-62
2021/09/19 10:00:46;;;;;;;233.98;21.85;;;17.60;90.60;;;;;;5045978;28;20096;-62
2021/09/19 10:03:12;;;;;;;124.00;13.65;;;17.70;90.60;;;;;;5062945;28;20028;-62
2021/09/19 10:05:38;;;;;;;185.57;19.92;;;17.70;90.70;;;;;;5080049;28;20051;-62
2021/09/19 10:08:04;;;;;;;193.27;19.10;;;17.70;90.80;;;;;;5056991;28;20119;-62
2021/09/19 10:10:32;;;;;;;224.23;24.02;;;17.80;90.80;;;;;;5067425;28;20123;-62
2021/09/19 10:12:58;;;;;;;251.30;26.33;;;17.80;90.90;;;;;;5045073;28;20027;-62
2021/09/19 10:15:25;;;;;;;225.35;25.08;;;17.80;91.00;;;;;;5062058;28;20216;-62
2021/09/19 10:17:50;;;;;;;251.57;25.23;;;17.90;90.90;;;;;;5078549;28;20055;-62
2021/09/19 10:20:17;;;;;;;207.38;24.05;;;17.90;91.00;;;;;;5060426;28;20032;-62
2021/09/19 10:23:09;;;;;;;265.00;24.70;;;17.90;90.90;;;;;;5061552;28;20051;-62
2021/09/19 10:25:39;;;;;;;247.48;22.92;;;17.90;91.00;;;;;;5062059;28;20040;-62
2021/09/19 10:28:41;;;;;;;241.82;24.70;;;17.90;91.20;;;;;;5055915;28;20035;-62
2021/09/19 10:31:11;;;;;;;251.95;24.85;;;17.90;91.10;;;;;;5047357;28;20617;-62
2021/09/19 10:33:53;;;;;;;207.57;21.50;;;17.90;91.20;;;;;;5078222;28;20579;-62
2021/09/19 10:36:38;;;;;;;257.95;26.63;;;17.90;91.30;;;;;;5046443;28;20036;-62
2021/09/19 10:39:28;;;;;;;217.18;23.85;;;18.00;91.40;;;;;;5079194;28;20030;-62
2021/09/19 10:42:16;;;;;;;278.45;26.35;;;18.00;91.40;;;;;;5084633;28;20090;-62
2021/09/19 10:44:44;;;;;;;260.58;26.00;;;18.00;91.50;;;;;;5075925;28;20161;-62
2021/09/19 10:47:13;;;;;;;244.43;25.90;;;18.00;91.40;;;;;;5074559;28;20096;-61
2021/09/19 10:49:39;;;;;;;265.73;24.70;;;18.10;91.40;;;;;;5044908;28;20036;-61
2021/09/19 10:52:05;;;;;;;244.65;25.65;;;18.00;91.30;;;;;;5062148;28;20032;-62
2021/09/19 10:54:50;;;;;;;194.32;23.92;;;18.00;91.10;;;;;;5059388;28;20028;-61
2021/09/19 10:57:22;;;;;;;192.97;21.17;;;18.00;91.10;;;;;;5079535;28;20032;-61
2021/09/19 11:00:19;;;;;;;230.38;22.35;;;18.00;91.00;;;;;;5062418;28;20519;-61
2021/09/19 11:02:59;;;;;;;190.45;20.92;;;18.00;91.00;;;;;;5078418;28;20153;-61
2021/09/19 11:05:33;;;;;;;213.93;21.85;;;18.00;90.90;;;;;;5079666;28;20048;-62
2021/09/19 11:08:07;;;;;;;175.70;21.55;;;18.00;91.00;;;;;;5059452;28;20156;-61
2021/09/19 11:10:45;;;;;;;196.82;21.80;;;18.00;91.00;;;;;;5079506;28;20016;-62
2021/09/19 11:13:34;;;;;;;199.43;21.10;;;18.00;90.90;;;;;;5083823;28;20581;-62
2021/09/19 11:16:03;;;;;;;188.25;19.92;;;18.00;90.80;;;;;;5065202;28;20035;-62
2021/09/19 11:18:42;;;;;;;192.77;19.42;;;18.00;90.90;;;;;;5083404;28;20028;-60
2021/09/19 11:21:10;;;;;;;197.25;21.10;;;18.00;91.00;;;;;;5065098;28;20090;-61
2021/09/19 11:23:38;;;;;;;182.55;20.15;;;18.00;90.90;;;;;;5081561;28;20048;-61
2021/09/19 11:26:04;;;;;;;186.02;18.52;;;18.00;90.90;;;;;;5064176;28;20146;-61
2021/09/19 11:28:31;;;;;;;196.18;18.63;;;18.00;90.90;;;;;;5080023;28;20475;-61
2021/09/19 11:30:57;;;;;;;165.98;17.58;;;18.00;90.70;;;;;;5064022;28;20444;-61
2021/09/19 11:33:23;;;;;;;161.57;19.45;;;18.00;90.50;;;;;;5064099;28;20051;-61
2021/09/19 11:35:49;;;;;;;186.77;20.35;;;18.00;90.40;;;;;;5058761;28;20027;-64
2021/09/19 11:38:18;;;;;;;177.35;18.23;;;18.00;90.40;;;;;;5058971;28;20066;-61
2021/09/19 11:40:44;;;;;;;146.98;15.75;;;18.00;90.40;;;;;;5058077;28;20344;-61
2021/09/19 11:43:09;;;;;;;179.85;18.58;;;18.00;90.40;;;;;;5062538;28;20036;-61
2021/09/19 11:45:38;;;;;;;159.23;17.83;;;18.00;90.50;;;;;;5080161;28;20039;-61
2021/09/19 11:48:07;;;;;;;172.82;20.38;;;18.00;90.30;;;;;;5077850;28;20156;-61
2021/09/19 11:50:37;;;;;;;172.75;18.88;;;18.00;90.40;;;;;;5077536;28;20028;-61
2021/09/19 11:53:06;;;;;;;178.23;19.13;;;18.00;90.70;;;;;;5079002;28;20039;-61
2021/09/19 11:55:31;;;;;;;187.00;18.38;;;18.00;90.80;;;;;;5071901;28;20119;-61
2021/09/19 11:57:58;;;;;;;190.02;19.15;;;18.00;90.70;;;;;;5065710;28;20226;-61
2021/09/19 12:00:29;;;;;;;152.25;15.77;;;18.00;90.80;;;;;;5064690;28;20213;-61
2021/09/19 12:02:54;;;;;;;155.15;16.35;;;18.00;90.40;;;;;;5076956;28;20046;-61
2021/09/19 12:05:23;;;;;;;148.65;15.77;;;18.00;90.40;;;;;;5079182;28;20040;-61
2021/09/19 12:07:48;;;;;;;166.85;19.02;;;18.00;90.30;;;;;;5062423;28;20027;-61
2021/09/19 12:10:14;;;;;;;155.77;18.67;;;18.10;90.50;;;;;;5076926;28;20043;-61
2021/09/19 12:12:39;;;;;;;239.80;22.38;;;18.00;90.60;;;;;;5060260;28;20400;-61
2021/09/19 12:15:05;;;;;;;216.52;20.25;;;18.10;90.80;;;;;;5046840;28;20692;-61
2021/09/19 12:17:31;;;;;;;180.10;19.38;;;18.00;90.70;;;;;;5060318;28;20858;-61
2021/09/19 12:20:01;;;;;;;163.95;16.73;;;18.10;90.60;;;;;;5075526;28;20105;-60
2021/09/19 12:22:28;;;;;;;163.30;15.55;;;18.10;90.50;;;;;;5044026;28;20127;-61
2021/09/19 12:24:58;;;;;;;148.95;15.90;;;18.10;90.20;;;;;;5042361;28;20052;-61
2021/09/19 12:27:26;;;;;;;151.52;16.05;;;18.10;90.40;;;;;;5078624;28;20028;-61
2021/09/19 12:30:05;;;;;;;122.85;15.90;;;18.10;90.30;;;;;;5062868;28;20028;-62
2021/09/19 12:32:49;;;;;;;167.77;14.85;;;18.10;90.20;;;;;;5043529;28;20547;-62
2021/09/19 12:35:23;;;;;;;146.68;17.17;;;18.00;90.20;;;;;;5046858;28;20043;-61
2021/09/19 12:37:49;;;;;;;177.32;17.23;;;18.00;90.10;;;;;;5080102;28;20040;-61